Terminal Aerodrome Forecast
Issued by NWS Sterling, VA

Home | Current Version | Previous Version | Text Only | Print | Product List | Glossary On
Versions: 1 2 3 4 5 6 7 8 9 10 11 12 13 14 15 16 17 18 19 20 21 22 23 24 25 26 27 28 29
000
FTUS41 KLWX 242049 AAA
TAFIAD
TAF AMD
KIAD 242049Z 2421/2524 08005KT 6SM -SHRA BR OVC006
     FM250000 04006KT 3SM BR OVC005
     FM250300 06005KT 3SM -SHRA BR OVC005
     FM250700 09004KT 1SM -SHRA BR OVC003
     FM251300 19009KT 3SM -SHRA OVC008 WS020/21040KT
     FM251600 20010G17KT 3SM -SHRA OVC015
     FM252000 24011G18KT P6SM BKN025
     FM252200 26009KT P6SM BKN050=

USA.gov is the U.S. government's official web portal to all federal, state and local government web resources and services.